In Rescue
 
Open Full Screen Window  High Contrast Mode
Wind Gusting 24 knots
18
May 13, 2021 11:24 AM CDT
Weather Information
Wind Direction
  210 °
Wind Speed
  18 kt (21 mph)
Wind Gust
  24 kt (28 mph)
Altimeter
30.31 in
Visibility
10 SM
Temperature
17° C
63° F
Dewpoint
01° C
34° F
Humidity
34%
1hr Rain Fall
00.00 in.
24hr Rain Fall
00.00 in.
Sky Condition
Clear
VFR

METAR KDVP 131624Z AUTO 21018G24KT 10SM CLR 17/01 A3031 RMK AO2 T01690008

FAA Disclaimer: The data displayed is for advisory purposes only and is not to be used for flight planning or operations.